Marlow, Georgia
Current Conditions -  °F | °C
As of 10:53 AM on Wednesday 28 Jan 2015 (Local Time) from KSAV Reporting Station
Clear Clear  
Wind Chill:   Ceiling: Unl
Heat Index:   Visibility: 10mi
Dew Point: -8°   Wind: 9mph
Humidity: 33%   Direction: 10°N
Pressure: 30.28"   Gusts: NA
Location:  32.3167°N, 81.3986°W
Report Text: KSAV 281553Z 01008KT 10SM CLR 08/M08 A3028 RMK AO2 SLP253 T00781078
Loading
Personal Weather Stations






























Interactive Weather Map New forecast layout! Learn more

10-Day Weather Forecast

Advertisements
Track Severe Weather on mobile